Darstellungsparameter: Aktuell verwendete Einstellungen:
Skalierung der Graphiken ... ?
xyx+y,   Skalierungsfaktor:      Skalierung: Modus: x, Faktor: 1
Darstellungszeitraum ... ?
Vom - - bis: - -   Zeitraum: 22.01.2011 - 23.01.2011
Min/Max/Avg-Anzeige ... ?
Zeige MMA aktuell
Zeige MMA Monat
Zeige MMA alles
Zeige --A aktuell
Zeige --A Monat
Zeige --A alles
Keine MMA-Anzeige
MMA:
Average (ber die Originaldaten)
MMA-Basis: 22.01.2011 - 23.01.2011
Quicknavigation für Darstellung... ?
Tage:      1T, 2T, 3T, 5T -1T -2T -3T -5T +1T +2T +3T +5T
Wochen: 1W, 2W, 3W -1W -2W -3W +1W +2W +3W
Monate: 1M, 3M, 6M -1M -3M -6M +1M +3M +6M
Jahre:    1J, 3J, 5J, 10J -1J -3J -5J -10J +1J +3J +5J +10J
Nutze für die Darstellung ... ?
Originaldaten oder Mittelwerte auf ...
Stundenbasis Tagesbasis Wochenbasis
Monatsbasis Jahresbasis      Datenbasis: Original-Daten
Darstellen als:
Statistik (Auto) Statistik J:M      Darstellung:
Zur Graphik,    zurück zur Übersicht aller Sensoren.
 
Tabellarische Datenbersicht: ?
 
Sensor: Nr:Datum:Temp:Abs-Feuchte:Windchill:Wind:
Aussen-T/F 1 22-01-2011 00:11:04 -0.4 C 3.86 g/m*3 -0.4 C 0 km/h
2 22-01-2011 00:23:04 -0.4 C 3.86 g/m*3 -0.4 C 0 km/h
3 22-01-2011 00:35:04 -0.4 C 3.86 g/m*3 -0.4 C 0 km/h
4 22-01-2011 00:47:04 -0.4 C 3.86 g/m*3 -0.4 C 0 km/h
5 22-01-2011 00:59:04 -0.4 C 3.86 g/m*3 -0.4 C 0 km/h
6 22-01-2011 01:11:04 -0.4 C 3.86 g/m*3 -0.4 C 0 km/h
7 22-01-2011 01:23:05 -0.4 C 3.86 g/m*3 -0.4 C 0 km/h
8 22-01-2011 01:35:05 -0.4 C 3.86 g/m*3 -0.4 C 0 km/h
9 22-01-2011 01:47:05 -0.4 C 3.86 g/m*3 -0.4 C 0 km/h
10 22-01-2011 01:59:05 -0.4 C 3.86 g/m*3 -0.4 C 0 km/h
11 22-01-2011 02:11:05 -0.4 C 3.86 g/m*3 -0.4 C 0 km/h
12 22-01-2011 02:23:05 -0.4 C 3.86 g/m*3 -0.4 C 0 km/h
13 22-01-2011 02:35:05 -0.4 C 3.86 g/m*3 -0.4 C 0 km/h
14 22-01-2011 02:47:05 -0.4 C 3.86 g/m*3 -0.4 C 0 km/h
15 22-01-2011 02:59:05 -0.4 C 3.86 g/m*3 -0.4 C 0 km/h
16 22-01-2011 03:11:05 -0.4 C 3.86 g/m*3 -0.4 C 0 km/h
17 22-01-2011 03:23:05 -0.4 C 3.86 g/m*3 -0.4 C 0 km/h
18 22-01-2011 03:35:05 -0.4 C 3.86 g/m*3 -0.4 C 0 km/h
19 22-01-2011 03:47:05 -0.4 C 3.86 g/m*3 -0.4 C 0 km/h
20 22-01-2011 03:59:05 -0.4 C 3.86 g/m*3 -0.4 C 0 km/h
21 22-01-2011 04:11:05 -0.4 C 3.86 g/m*3 -0.4 C 0 km/h
22 22-01-2011 04:23:05 -0.4 C 3.86 g/m*3 -0.4 C 0 km/h
23 22-01-2011 04:35:05 -0.4 C 3.86 g/m*3 -0.4 C 0 km/h
24 22-01-2011 04:47:05 -0.4 C 3.86 g/m*3 -0.4 C 0 km/h
25 22-01-2011 04:59:05 -0.4 C 3.86 g/m*3 -0.4 C 0 km/h
Sensor: Nr:Datum:Temp:Abs-Feuchte:Windchill:Wind:
Aussen-T/F 26 22-01-2011 05:11:05 -0.4 C 3.86 g/m*3 -0.4 C 0 km/h
27 22-01-2011 05:23:05 -0.4 C 3.86 g/m*3 -0.4 C 0 km/h
28 22-01-2011 05:35:06 -0.4 C 3.86 g/m*3 -0.4 C 0 km/h
29 22-01-2011 05:47:06 -0.4 C 3.86 g/m*3 -0.4 C 0 km/h
30 22-01-2011 05:59:06 -0.4 C 3.86 g/m*3 -0.4 C 0 km/h
31 22-01-2011 06:11:06 -0.4 C 3.86 g/m*3 -0.4 C 0 km/h
32 22-01-2011 06:23:06 -0.4 C 3.86 g/m*3 -0.4 C 0 km/h
33 22-01-2011 06:35:06 -0.4 C 3.86 g/m*3 -0.4 C 0 km/h
34 22-01-2011 06:47:06 -0.4 C 3.86 g/m*3 -0.4 C 0 km/h
35 22-01-2011 06:59:06 -0.4 C 3.86 g/m*3 -0.4 C 0 km/h
36 22-01-2011 07:11:06 -0.4 C 3.86 g/m*3 -0.4 C 0 km/h
37 22-01-2011 07:23:06 -0.4 C 3.86 g/m*3 -0.4 C 0 km/h
38 22-01-2011 07:35:06 -0.4 C 3.86 g/m*3 -0.4 C 0 km/h
39 22-01-2011 07:47:06 -0.4 C 3.86 g/m*3 -0.4 C 0 km/h
40 22-01-2011 07:59:06 -0.4 C 3.86 g/m*3 -0.4 C 0 km/h
41 22-01-2011 08:11:06 -0.4 C 3.86 g/m*3 -0.4 C 0 km/h
42 22-01-2011 08:23:06 -0.4 C 3.86 g/m*3 -0.4 C 0 km/h
43 22-01-2011 08:35:06 -0.4 C 3.86 g/m*3 -0.4 C 0 km/h
44 22-01-2011 08:47:06 -0.4 C 3.86 g/m*3 -0.4 C 0 km/h
45 22-01-2011 08:59:06 0 C 3.97 g/m*3 0 C 0 km/h
46 22-01-2011 09:11:06 0 C 3.97 g/m*3 0 C 0 km/h
47 22-01-2011 09:23:06 0 C 3.97 g/m*3 0 C 0 km/h
48 22-01-2011 09:35:07 0 C 3.97 g/m*3 0 C 0 km/h
49 22-01-2011 09:47:07 0 C 3.97 g/m*3 0 C 0 km/h
50 22-01-2011 09:59:07 0 C 3.97 g/m*3 0 C 0 km/h
Sensor: Nr:Datum:Temp:Abs-Feuchte:Windchill:Wind:
Aussen-T/F 51 22-01-2011 10:11:07 0 C 3.97 g/m*3 0 C 0 km/h
52 22-01-2011 10:23:03 0.9 C 3.92 g/m*3 0.9 C 0 km/h
53 22-01-2011 10:35:04 1.2 C 3.84 g/m*3 1.2 C 0 km/h
54 22-01-2011 10:47:02 1.1 C 3.76 g/m*3 1.1 C 0 km/h
55 22-01-2011 10:59:02 1.4 C 3.79 g/m*3 1.4 C 0 km/h
56 22-01-2011 11:11:02 1.4 C 3.79 g/m*3 1.4 C 0 km/h
57 22-01-2011 11:23:02 1.3 C 3.71 g/m*3 1.3 C 0 km/h
58 22-01-2011 11:35:02 1.5 C 3.76 g/m*3 1.5 C 0 km/h
59 22-01-2011 11:47:02 1.4 C 3.68 g/m*3 1.4 C 0 km/h
60 22-01-2011 11:59:03 1.4 C 3.68 g/m*3 1.4 C 0 km/h
61 22-01-2011 12:11:01 1.4 C 3.68 g/m*3 1.4 C 0 km/h
62 22-01-2011 12:23:01 1.7 C 3.7 g/m*3 1.7 C 0 km/h
63 22-01-2011 12:35:02 1.7 C 3.7 g/m*3 1.7 C 0 km/h
64 22-01-2011 12:47:02 1.8 C 3.67 g/m*3 1.8 C 0 km/h
65 22-01-2011 12:59:02 2 C 3.67 g/m*3 2 C 0 km/h
66 22-01-2011 13:11:02 1.9 C 3.59 g/m*3 1.9 C 0 km/h
67 22-01-2011 13:23:02 1.9 C 3.59 g/m*3 1.9 C 0 km/h
68 22-01-2011 13:35:02 1.4 C 3.73 g/m*3 1.4 C 0 km/h
69 22-01-2011 13:47:02 1.7 C 3.87 g/m*3 1.7 C 0 km/h
70 22-01-2011 13:59:02 1.7 C 3.87 g/m*3 1.7 C 0 km/h
71 22-01-2011 14:11:03 1.8 C 3.95 g/m*3 1.8 C 0 km/h
72 22-01-2011 14:23:02 1.8 C 4 g/m*3 1.8 C 0 km/h
73 22-01-2011 14:35:02 2 C 4.06 g/m*3 2 C 0 km/h
74 22-01-2011 14:47:01 2 C 4 g/m*3 2 C 0 km/h
75 22-01-2011 14:59:01 1.6 C 3.89 g/m*3 1.6 C 0 km/h
Sensor: Nr:Datum:Temp:Abs-Feuchte:Windchill:Wind:
Aussen-T/F 76 22-01-2011 15:11:02 1.4 C 3.84 g/m*3 1.4 C 0 km/h
77 22-01-2011 15:23:01 1.6 C 3.95 g/m*3 1.6 C 0 km/h
78 22-01-2011 15:35:02 1.6 C 3.95 g/m*3 1.6 C 0 km/h
79 22-01-2011 15:47:01 1.6 C 3.95 g/m*3 1.6 C 0 km/h
80 22-01-2011 15:59:01 1.6 C 3.89 g/m*3 1.6 C 0 km/h
81 22-01-2011 16:11:02 1.5 C 3.87 g/m*3 1.5 C 0 km/h
82 22-01-2011 16:23:01 1.4 C 3.89 g/m*3 1.4 C 0 km/h
83 22-01-2011 16:35:02 1.3 C 3.87 g/m*3 1.3 C 0 km/h
84 22-01-2011 16:47:02 1.3 C 3.87 g/m*3 1.3 C 0 km/h
85 22-01-2011 16:59:02 0.9 C 3.81 g/m*3 0.9 C 0 km/h
86 22-01-2011 17:11:02 0.8 C 3.84 g/m*3 0.8 C 0 km/h
87 22-01-2011 17:23:02 0.7 C 3.92 g/m*3 0.7 C 0 km/h
88 22-01-2011 17:35:02 0.7 C 3.92 g/m*3 0.7 C 0 km/h
89 22-01-2011 17:47:01 0.7 C 3.92 g/m*3 0.7 C 0 km/h
90 22-01-2011 17:59:01 0.7 C 3.92 g/m*3 0.7 C 0 km/h
91 22-01-2011 18:11:01 0.7 C 3.92 g/m*3 0.7 C 0 km/h
92 22-01-2011 18:23:01 0.7 C 3.92 g/m*3 0.7 C 0 km/h
93 22-01-2011 18:35:02 0.7 C 3.92 g/m*3 0.7 C 0 km/h
94 22-01-2011 18:47:02 0.7 C 3.92 g/m*3 0.7 C 0 km/h
95 22-01-2011 18:59:02 0 C 3.97 g/m*3 0 C 0 km/h
96 22-01-2011 19:11:02 0.2 C 4.03 g/m*3 0.2 C 0 km/h
97 22-01-2011 19:23:02 0.3 C 4.06 g/m*3 0.3 C 0 km/h
98 22-01-2011 19:35:02 0.4 C 4.08 g/m*3 0.4 C 0 km/h
99 22-01-2011 19:47:02 0.4 C 4.03 g/m*3 0.4 C 0 km/h
100 22-01-2011 19:59:03 0.4 C 4.03 g/m*3 0.4 C 0 km/h
Sensor: Nr:Datum:Temp:Abs-Feuchte:Windchill:Wind:
Aussen-T/F 101 22-01-2011 20:11:02 0.4 C 3.98 g/m*3 0.4 C 0 km/h
102 22-01-2011 20:23:02 0.4 C 3.98 g/m*3 0.4 C 0 km/h
103 22-01-2011 20:35:02 0.4 C 4.03 g/m*3 0.4 C 0 km/h
104 22-01-2011 20:47:02 0.4 C 4.03 g/m*3 0.4 C 0 km/h
105 22-01-2011 20:59:02 0.3 C 4.01 g/m*3 0.3 C 0 km/h
106 22-01-2011 21:11:02 0.4 C 4.03 g/m*3 0.4 C 0 km/h
107 22-01-2011 21:23:01 0.4 C 4.03 g/m*3 0.4 C 0 km/h
108 22-01-2011 21:35:02 0.3 C 4.01 g/m*3 0.3 C 0 km/h
109 22-01-2011 21:47:02 0.3 C 4.06 g/m*3 0.3 C 0 km/h
110 22-01-2011 21:59:02 0.2 C 4.03 g/m*3 0.2 C 0 km/h
111 22-01-2011 22:11:02 0.3 C 4.06 g/m*3 0.3 C 0 km/h
112 22-01-2011 22:24:03 0.3 C 4.06 g/m*3 0.3 C 0 km/h
113 22-01-2011 22:36:03 0.2 C 4.03 g/m*3 0.2 C 0 km/h
114 22-01-2011 22:48:03 0.2 C 4.03 g/m*3 0.2 C 0 km/h
115 22-01-2011 23:00:03 0 C 3.97 g/m*3 0 C 0 km/h
116 22-01-2011 23:12:03 0 C 3.97 g/m*3 0 C 0 km/h
117 22-01-2011 23:24:03 0 C 3.97 g/m*3 0 C 0 km/h
118 22-01-2011 23:36:03 0 C 3.97 g/m*3 0 C 0 km/h
119 22-01-2011 23:48:03 0 C 3.97 g/m*3 0 C 0 km/h
120 23-01-2011 00:00:03 0.2 C 4.03 g/m*3 0.2 C 0 km/h
121 23-01-2011 00:12:03 0.1 C 4 g/m*3 0.1 C 0 km/h
122 23-01-2011 00:24:03 0.2 C 4.03 g/m*3 0.2 C 0 km/h
123 23-01-2011 00:36:03 0.3 C 4.06 g/m*3 0.3 C 0 km/h
124 23-01-2011 00:48:03 0.3 C 4.06 g/m*3 0.3 C 0 km/h
125 23-01-2011 01:00:03 0.2 C 4.03 g/m*3 0.2 C 0 km/h
Sensor: Nr:Datum:Temp:Abs-Feuchte:Windchill:Wind:
Aussen-T/F 126 23-01-2011 01:12:03 0.3 C 4.06 g/m*3 0.3 C 0 km/h
127 23-01-2011 01:24:03 0.2 C 4.03 g/m*3 0.2 C 0 km/h
128 23-01-2011 01:36:03 0.2 C 4.03 g/m*3 0.2 C 0 km/h
129 23-01-2011 01:48:03 0.2 C 4.03 g/m*3 0.2 C 0 km/h
130 23-01-2011 02:00:03 0.2 C 4.03 g/m*3 0.2 C 0 km/h
131 23-01-2011 02:12:04 0.3 C 4.06 g/m*3 0.3 C 0 km/h
132 23-01-2011 02:24:04 0.2 C 4.03 g/m*3 0.2 C 0 km/h
133 23-01-2011 02:36:04 0.3 C 4.06 g/m*3 0.3 C 0 km/h
134 23-01-2011 02:48:04 0.4 C 4.08 g/m*3 0.4 C 0 km/h
135 23-01-2011 03:00:04 0.4 C 4.03 g/m*3 0.4 C 0 km/h
136 23-01-2011 03:12:04 0.5 C 4.06 g/m*3 0.5 C 0 km/h
137 23-01-2011 03:24:04 0.4 C 4.03 g/m*3 0.4 C 0 km/h
138 23-01-2011 03:36:04 0.4 C 4.03 g/m*3 0.4 C 0 km/h
139 23-01-2011 03:48:04 0.5 C 4.06 g/m*3 0.5 C 0 km/h
140 23-01-2011 04:00:04 0.5 C 4.06 g/m*3 0.5 C 0 km/h
141 23-01-2011 04:12:04 0.5 C 4.06 g/m*3 0.5 C 0 km/h
142 23-01-2011 04:24:04 0.4 C 4.03 g/m*3 0.4 C 0 km/h
143 23-01-2011 04:36:04 0.3 C 4.06 g/m*3 0.3 C 0 km/h
144 23-01-2011 04:48:04 0.3 C 4.06 g/m*3 0.3 C 0 km/h
145 23-01-2011 05:00:04 0.2 C 4.08 g/m*3 0.2 C 0 km/h
146 23-01-2011 05:12:04 0.2 C 4.18 g/m*3 0.2 C 0 km/h
147 23-01-2011 05:24:04 0.2 C 4.22 g/m*3 0.2 C 0 km/h
148 23-01-2011 05:36:04 0.2 C 4.27 g/m*3 0.2 C 0 km/h
149 23-01-2011 05:48:04 0.3 C 4.3 g/m*3 0.3 C 0 km/h
150 23-01-2011 06:00:04 0.3 C 4.35 g/m*3 0.3 C 0 km/h
Sensor: Nr:Datum:Temp:Abs-Feuchte:Windchill:Wind:
Aussen-T/F 151 23-01-2011 06:12:05 0.4 C 4.38 g/m*3 0.4 C 0 km/h
152 23-01-2011 06:24:05 0.4 C 4.38 g/m*3 0.4 C 0 km/h
153 23-01-2011 06:36:05 0.5 C 4.41 g/m*3 0.5 C 0 km/h
154 23-01-2011 06:48:05 0.5 C 4.46 g/m*3 0.5 C 0 km/h
155 23-01-2011 07:00:05 0.6 C 4.49 g/m*3 0.6 C 0 km/h
156 23-01-2011 07:12:05 0.6 C 4.49 g/m*3 0.6 C 0 km/h
157 23-01-2011 07:24:05 0.7 C 4.53 g/m*3 0.7 C 0 km/h
158 23-01-2011 07:36:05 0.7 C 4.53 g/m*3 0.7 C 0 km/h
159 23-01-2011 07:48:05 0.7 C 4.53 g/m*3 0.7 C 0 km/h
160 23-01-2011 08:00:05 0.8 C 4.56 g/m*3 0.8 C 0 km/h
161 23-01-2011 08:12:05 0.8 C 4.56 g/m*3 0.8 C 0 km/h
162 23-01-2011 08:24:05 0.9 C 4.64 g/m*3 0.9 C 0 km/h
163 23-01-2011 08:36:05 1.1 C 4.65 g/m*3 1.1 C 0 km/h
164 23-01-2011 08:48:05 1.1 C 4.65 g/m*3 1.1 C 0 km/h
165 23-01-2011 09:00:05 1.3 C 4.72 g/m*3 1.3 C 0 km/h
166 23-01-2011 09:12:05 1.4 C 4.75 g/m*3 1.4 C 0 km/h
167 23-01-2011 09:24:05 1.4 C 4.69 g/m*3 1.4 C 0 km/h
168 23-01-2011 09:36:05 1.5 C 4.73 g/m*3 1.5 C 0 km/h
169 23-01-2011 09:48:02 1.7 C 4.68 g/m*3 1.7 C 0 km/h
170 23-01-2011 10:00:02 1.8 C 4.6 g/m*3 1.8 C 0 km/h
171 23-01-2011 10:12:02 2 C 4.61 g/m*3 2 C 0 km/h
172 23-01-2011 10:24:02 2 C 4.5 g/m*3 2 C 0 km/h
173 23-01-2011 10:36:02 1.9 C 4.53 g/m*3 1.9 C 0 km/h
174 23-01-2011 10:48:02 1.9 C 4.53 g/m*3 1.9 C 0 km/h
175 23-01-2011 11:00:02 1.8 C 4.49 g/m*3 1.8 C 0 km/h
Sensor: Nr:Datum:Temp:Abs-Feuchte:Windchill:Wind:
Aussen-T/F 176 23-01-2011 11:12:01 2 C 4.5 g/m*3 2 C 0 km/h
177 23-01-2011 11:24:02 2 C 4.5 g/m*3 2 C 0 km/h
178 23-01-2011 11:36:01 2.1 C 4.59 g/m*3 2.1 C 0 km/h
179 23-01-2011 11:48:02 2.2 C 4.62 g/m*3 2.2 C 0 km/h
180 23-01-2011 12:00:02 2.5 C 4.66 g/m*3 2.5 C 0 km/h
181 23-01-2011 12:12:01 2.1 C 4.53 g/m*3 2.1 C 0 km/h
182 23-01-2011 12:24:01 2 C 4.56 g/m*3 2 C 0 km/h
183 23-01-2011 12:36:01 2.1 C 4.64 g/m*3 2.1 C 0 km/h
184 23-01-2011 12:48:02 2.1 C 4.7 g/m*3 2.1 C 0 km/h
185 23-01-2011 13:00:03 2.2 C 4.73 g/m*3 2.2 C 0 km/h
186 23-01-2011 13:12:01 2.3 C 4.76 g/m*3 2.3 C 0 km/h
187 23-01-2011 13:24:02 2.2 C 4.73 g/m*3 2.2 C 0 km/h
188 23-01-2011 13:36:02 2.2 C 4.79 g/m*3 2.2 C 0 km/h
189 23-01-2011 13:48:01 2.2 C 4.79 g/m*3 2.2 C 0 km/h
190 23-01-2011 14:00:01 2.2 C 4.79 g/m*3 2.2 C 0 km/h
191 23-01-2011 14:12:02 2.4 C 4.85 g/m*3 2.4 C 0 km/h
192 23-01-2011 14:24:01 2.4 C 4.85 g/m*3 2.4 C 0 km/h
193 23-01-2011 14:36:01 2.5 C 4.94 g/m*3 2.5 C 0 km/h
194 23-01-2011 14:48:01 2.5 C 4.94 g/m*3 2.5 C 0 km/h
195 23-01-2011 15:00:01 2.5 C 4.94 g/m*3 2.5 C 0 km/h
196 23-01-2011 15:12:02 2.3 C 4.88 g/m*3 2.3 C 0 km/h
197 23-01-2011 15:24:01 2.1 C 4.81 g/m*3 2.1 C 0 km/h
198 23-01-2011 15:36:02 2.3 C 4.93 g/m*3 2.3 C 0 km/h
199 23-01-2011 15:48:01 2.3 C 4.93 g/m*3 2.3 C 0 km/h
200 23-01-2011 16:00:01 2.2 C 4.9 g/m*3 2.2 C 0 km/h
Sensor: Nr:Datum:Temp:Abs-Feuchte:Windchill:Wind:
Aussen-T/F 201 23-01-2011 16:12:02 2.2 C 4.96 g/m*3 2.2 C 0 km/h
202 23-01-2011 16:24:01 2.2 C 4.96 g/m*3 2.2 C 0 km/h
203 23-01-2011 16:36:02 2.2 C 5.01 g/m*3 2.2 C 0 km/h
204 23-01-2011 16:48:01 2.2 C 5.01 g/m*3 2.2 C 0 km/h
205 23-01-2011 17:00:01 2.2 C 5.01 g/m*3 2.2 C 0 km/h
206 23-01-2011 17:12:02 2.2 C 5.01 g/m*3 2.2 C 0 km/h
207 23-01-2011 17:24:02 2.2 C 5.07 g/m*3 2.2 C 0 km/h
208 23-01-2011 17:36:01 2.1 C 5.04 g/m*3 2.1 C 0 km/h
209 23-01-2011 17:48:01 2.1 C 5.04 g/m*3 2.1 C 0 km/h
210 23-01-2011 18:00:01 2.1 C 5.04 g/m*3 2.1 C 0 km/h
211 23-01-2011 18:12:02 2.1 C 5.04 g/m*3 2.1 C 0 km/h
212 23-01-2011 18:24:02 2.2 C 5.07 g/m*3 2.2 C 0 km/h
213 23-01-2011 18:36:01 2.1 C 5.09 g/m*3 2.1 C 0 km/h
214 23-01-2011 18:48:02 2.1 C 5.09 g/m*3 2.1 C 0 km/h
215 23-01-2011 19:00:02 2.1 C 5.09 g/m*3 2.1 C 0 km/h
216 23-01-2011 19:12:01 2.2 C 5.13 g/m*3 2.2 C 0 km/h
217 23-01-2011 19:24:02 2.2 C 5.13 g/m*3 2.2 C 0 km/h
218 23-01-2011 19:36:03 2.2 C 5.13 g/m*3 2.2 C 0 km/h
219 23-01-2011 19:48:03 2.2 C 5.13 g/m*3 2.2 C 0 km/h
220 23-01-2011 20:00:03 2.2 C 5.13 g/m*3 2.2 C 0 km/h
221 23-01-2011 20:12:02 2.2 C 5.13 g/m*3 2.2 C 0 km/h
222 23-01-2011 20:24:02 2.2 C 5.13 g/m*3 2.2 C 0 km/h
223 23-01-2011 20:36:02 2.2 C 5.13 g/m*3 2.2 C 0 km/h
224 23-01-2011 20:48:02 2.3 C 5.22 g/m*3 2.3 C 0 km/h
225 23-01-2011 21:00:02 2.3 C 5.22 g/m*3 2.3 C 0 km/h
Sensor: Nr:Datum:Temp:Abs-Feuchte:Windchill:Wind:
Aussen-T/F 226 23-01-2011 21:12:02 2.3 C 5.22 g/m*3 2.3 C 0 km/h
227 23-01-2011 21:24:03 2.2 C 5.18 g/m*3 2.2 C 0 km/h
228 23-01-2011 21:36:02 2.2 C 5.18 g/m*3 2.2 C 0 km/h
229 23-01-2011 21:49:05 2.2 C 5.18 g/m*3 2.2 C 0 km/h
230 23-01-2011 22:01:05 2.3 C 5.22 g/m*3 2.3 C 0 km/h
231 23-01-2011 22:13:05 2.2 C 5.18 g/m*3 2.2 C 0 km/h
232 23-01-2011 22:25:05 2.3 C 5.22 g/m*3 2.3 C 0 km/h
233 23-01-2011 22:37:05 2.3 C 5.22 g/m*3 2.3 C 0 km/h
234 23-01-2011 22:49:05 2.3 C 5.22 g/m*3 2.3 C 0 km/h
235 23-01-2011 23:01:05 2.3 C 5.22 g/m*3 2.3 C 0 km/h
236 23-01-2011 23:13:05 2.3 C 5.22 g/m*3 2.3 C 0 km/h
237 23-01-2011 23:25:05 2.4 C 5.25 g/m*3 2.4 C 0 km/h
238 23-01-2011 23:37:05 2.4 C 5.25 g/m*3 2.4 C 0 km/h
239 23-01-2011 23:49:05 2.4 C 5.25 g/m*3 2.4 C 0 km/h

Legende:
   Min
   Max


Maximal/Minimal-Werte vom 22.01.2011 - 23.01.2011

Sensor Min Max Avg
Temp
(Aussen-T/F)
-0.4 °C
22-01-2011  00:11:04
2.5 °C
23-01-2011  12:00:02
0.95 °C
Abs-Feuchte
(Aussen-T/F)
3.59 g/m*3
22-01-2011  13:11:02
5.25 g/m*3
23-01-2011  23:25:05
4.26 g/m*3
Windchill
(Aussen-T/F)
-0.4 C
22-01-2011  00:11:04
2.5 C
23-01-2011  12:00:02
0.95 C

Die Daten stammen von einer Davis Vantage Pro 2 Wetter-Station und werden unter Linux mit der Software wview2wettercgi und aufbereitet. Alle Angaben erfolgen ohne Gewähr für ihre Vollständigkeit oder Richtigkeit.
Kontakt: Rainer Krienke krienke@uni-koblenz.de . Meine Webseiten an der Uni Koblenz oder privat.
Version: $Revision: 0.78 $